Ascension Island, Ascension Island

3:57 AM GMT on July 31, 2014 (GMT +0000)
Ascension Aux Air Base / Wideawake Field (FHAW) Elev 259 ft | 7.97 °S, 14.41 °W | Change Station

Current weather conditions updated 7 minutes ago

Scattered Clouds
Scattered Clouds
73 °F
Feels Like 73 °F
N
12
Wind Variable Wind from SE

Today is forecast to be Cooler than yesterday.

Today
High -- | Low -- °F
--% Chance of Precip.
Yesterday
High -- | Low -- °F
Precip. -- in
7:11 AM 6:57 PM
Waxing Crescent, 15% visible
Pressure 30.01 in
Visibility 6.2 miles
Clouds Scattered Clouds 4300 ft
Dew Point 66 °F
Humidity 78%
Rainfall 0.00 in
Snow Depth Not available.
UV 0 out of 12
Pollen Not available.
Air Quality Not available.
Flu Activity Not available.
METAR FHAW 310350Z 13010KT 9999 SCT043 23/19 Q1016 BLU

More Conditions Fewer Conditions

Pressure 30.01 in
Visibility 6.2 miles
Clouds Scattered Clouds 4300 ft
Dew Point 66 °F
Humidity 78%
Rainfall 0.00 in
Snow Depth Not available.
UV 0 out of 12
Pollen Not available.
Air Quality Not available.
Flu Activity Not available.
METAR FHAW 310350Z 13010KT 9999 SCT043 23/19 Q1016 BLU

More Conditions Fewer Conditions

10-Day Weather Forecast

Almanac

Astronomy

Jul. 31, 2014 Rise Set
Actual Time 7:11 AM GMT 6:57 PM GMT
Civil Twilight 6:49 AM GMT 7:18 PM GMT
Nautical Twilight 6:23 AM GMT 7:44 PM GMT
Astronomical Twilight 5:58 AM GMT 8:09 PM GMT
Moon 10:07 AM GMT 10:30 PM GMT
Length of Visible Light 12h 29m
Length of Day
11h 45m
Tomorrow will be 0m 19s longer.
Waxing Crescent, 15% of the Moon is Illuminated
Jul 30
Waxing Crescent
Aug 3
First Quarter
Aug 10
Full
Aug 17
Last Quarter
Aug 25
New

Yesterday's Extremes

Country Highs Country Lows

Community

WunderPhotos

Upload Photos

1,739,279 photos uploaded!

Nearby

Snow Depth

Not available.

Earthquake Activity

City Distance Mag. Time & Date
No recent earthquake activity has been reported nearby.
Minimum magnitude displayed is 2.5.

Coastal Water Temperatures

Place Temperature
No Stations Reporting

Nearby Weather Stations

There are no personal weather stations in this area.